sensor_id;sensor_type;location;lat;lon;timestamp;pressure;altitude;pressure_sealevel;temperature;humidity
40075;BME280;26529;51.530;11.754;2022-11-15T00:01:42;99849.69;;;18.30;52.37
40075;BME280;26529;51.530;11.754;2022-11-15T00:04:26;99849.69;;;18.30;52.33
40075;BME280;26529;51.530;11.754;2022-11-15T00:07:10;99847.97;;;18.29;52.53
40075;BME280;26529;51.530;11.754;2022-11-15T00:09:54;99847.66;;;18.34;52.42
40075;BME280;26529;51.530;11.754;2022-11-15T00:12:38;99849.47;;;18.33;52.29
40075;BME280;26529;51.530;11.754;2022-11-15T00:15:22;99847.56;;;18.35;52.12
40075;BME280;26529;51.530;11.754;2022-11-15T00:18:12;99849.47;;;18.33;52.18
40075;BME280;26529;51.530;11.754;2022-11-15T00:21:06;99854.78;;;18.33;52.15
40075;BME280;26529;51.530;11.754;2022-11-15T00:23:50;99857.25;;;18.36;52.06
40075;BME280;26529;51.530;11.754;2022-11-15T00:26:34;99856.06;;;18.40;52.12
40075;BME280;26529;51.530;11.754;2022-11-15T00:29:19;99860.31;;;18.43;51.96
40075;BME280;26529;51.530;11.754;2022-11-15T00:32:03;99862.13;;;18.42;52.02
40075;BME280;26529;51.530;11.754;2022-11-15T00:34:47;99862.13;;;18.42;52.16
40075;BME280;26529;51.530;11.754;2022-11-15T00:37:31;99863.94;;;18.42;52.05
40075;BME280;26529;51.530;11.754;2022-11-15T00:40:15;99861.19;;;18.43;52.03
40075;BME280;26529;51.530;11.754;2022-11-15T00:42:59;99866.50;;;18.43;52.02
40075;BME280;26529;51.530;11.754;2022-11-15T00:45:43;99871.91;;;18.42;52.08
40075;BME280;26529;51.530;11.754;2022-11-15T00:48:27;99874.44;;;18.43;51.91
40075;BME280;26529;51.530;11.754;2022-11-15T00:51:11;99878.06;;;18.42;51.97
40075;BME280;26529;51.530;11.754;2022-11-15T00:53:56;99878.81;;;18.44;52.07
40075;BME280;26529;51.530;11.754;2022-11-15T00:56:40;99874.63;;;18.40;52.03
40075;BME280;26529;51.530;11.754;2022-11-15T00:59:24;99874.63;;;18.40;51.96
40075;BME280;26529;51.530;11.754;2022-11-15T01:02:09;99879.94;;;18.40;52.03
40075;BME280;26529;51.530;11.754;2022-11-15T01:04:53;99873.72;;;18.41;51.98
40075;BME280;26529;51.530;11.754;2022-11-15T01:07:37;99875.41;;;18.42;51.92
40075;BME280;26529;51.530;11.754;2022-11-15T01:10:23;99870.75;;;18.46;51.89
40075;BME280;26529;51.530;11.754;2022-11-15T01:13:07;99866.41;;;18.45;51.79
40075;BME280;26529;51.530;11.754;2022-11-15T01:15:51;99863.84;;;18.43;51.86
40075;BME280;26529;51.530;11.754;2022-11-15T01:18:36;99858.72;;;18.40;52.09
40075;BME280;26529;51.530;11.754;2022-11-15T01:21:21;99863.28;;;18.38;52.19
40075;BME280;26529;51.530;11.754;2022-11-15T01:24:05;99863.38;;;18.37;51.99
40075;BME280;26529;51.530;11.754;2022-11-15T01:26:49;99858.19;;;18.35;51.94
40075;BME280;26529;51.530;11.754;2022-11-15T01:29:33;99852.25;;;18.32;52.00
40075;BME280;26529;51.530;11.754;2022-11-15T01:32:18;99842.69;;;18.29;52.07
40075;BME280;26529;51.530;11.754;2022-11-15T01:35:02;99845.25;;;18.30;52.16
40075;BME280;26529;51.530;11.754;2022-11-15T01:37:47;99837.38;;;18.29;52.27
40075;BME280;26529;51.530;11.754;2022-11-15T01:40:30;99844.38;;;18.30;52.10
40075;BME280;26529;51.530;11.754;2022-11-15T01:43:27;99835.69;;;18.28;52.25
40075;BME280;26529;51.530;11.754;2022-11-15T01:49:17;99829.50;;;18.27;52.12
40075;BME280;26529;51.530;11.754;2022-11-15T01:52:05;99828.44;;;18.30;52.11
40075;BME280;26529;51.530;11.754;2022-11-15T01:54:54;99826.75;;;18.29;52.19
40075;BME280;26529;51.530;11.754;2022-11-15T01:57:42;99824.09;;;18.29;52.07
40075;BME280;26529;51.530;11.754;2022-11-15T02:00:29;99821.53;;;18.27;52.07
40075;BME280;26529;51.530;11.754;2022-11-15T02:03:15;99820.81;;;18.25;52.22
40075;BME280;26529;51.530;11.754;2022-11-15T02:05:59;99827.16;;;18.23;52.28
40075;BME280;26529;51.530;11.754;2022-11-15T02:08:44;99825.47;;;18.22;52.18
40075;BME280;26529;51.530;11.754;2022-11-15T02:11:28;99816.53;;;18.23;52.34
40075;BME280;26529;51.530;11.754;2022-11-15T02:14:14;99815.69;;;18.22;52.35
40075;BME280;26529;51.530;11.754;2022-11-15T02:29:55;99791.28;;;18.30;52.33
40075;BME280;26529;51.530;11.754;2022-11-15T02:33:00;99794.69;;;18.32;52.16
40075;BME280;26529;51.530;11.754;2022-11-15T02:36:06;99804.25;;;18.35;52.12
40075;BME280;26529;51.530;11.754;2022-11-15T02:38:59;99791.94;;;18.34;52.04
40075;BME280;26529;51.530;11.754;2022-11-15T02:41:57;99798.09;;;18.34;51.87
40075;BME280;26529;51.530;11.754;2022-11-15T02:44:45;99792.03;;;18.32;52.10
40075;BME280;26529;51.530;11.754;2022-11-15T02:47:32;99782.28;;;18.33;52.11
40075;BME280;26529;51.530;11.754;2022-11-15T02:50:20;99776.97;;;18.33;52.10
40075;BME280;26529;51.530;11.754;2022-11-15T02:53:08;99773.25;;;18.35;52.03
40075;BME280;26529;51.530;11.754;2022-11-15T02:55:53;99774.97;;;18.36;52.14
40075;BME280;26529;51.530;11.754;2022-11-15T03:05:01;99756.38;;;18.36;51.87
40075;BME280;26529;51.530;11.754;2022-11-15T03:07:58;99760.00;;;18.35;51.96
40075;BME280;26529;51.530;11.754;2022-11-15T03:14:01;99750.34;;;18.34;52.17
40075;BME280;26529;51.530;11.754;2022-11-15T03:20:01;99749.56;;;18.32;52.14
40075;BME280;26529;51.530;11.754;2022-11-15T03:22:47;99748.84;;;18.30;52.19
40075;BME280;26529;51.530;11.754;2022-11-15T03:25:34;99756.78;;;18.30;52.26
40075;BME280;26529;51.530;11.754;2022-11-15T03:28:25;99773.69;;;18.29;52.27
40075;BME280;26529;51.530;11.754;2022-11-15T03:31:14;99759.44;;;18.30;52.13
40075;BME280;26529;51.530;11.754;2022-11-15T03:34:23;99751.59;;;18.28;52.17
40075;BME280;26529;51.530;11.754;2022-11-15T03:37:12;99747.13;;;18.29;52.23
40075;BME280;26529;51.530;11.754;2022-11-15T03:39:58;99746.19;;;18.30;52.17
40075;BME280;26529;51.530;11.754;2022-11-15T03:42:47;99746.19;;;18.30;52.19
40075;BME280;26529;51.530;11.754;2022-11-15T03:45:36;99742.88;;;18.26;52.28
40075;BME280;26529;51.530;11.754;2022-11-15T03:48:27;99743.22;;;18.22;52.37
40075;BME280;26529;51.530;11.754;2022-11-15T03:51:14;99751.16;;;18.22;52.25
40075;BME280;26529;51.530;11.754;2022-11-15T03:53:58;99747.75;;;18.20;52.36
40075;BME280;26529;51.530;11.754;2022-11-15T03:56:43;99756.66;;;18.19;52.35
40075;BME280;26529;51.530;11.754;2022-11-15T03:59:27;99754.97;;;18.17;52.46
40075;BME280;26529;51.530;11.754;2022-11-15T04:02:12;99755.94;;;18.16;52.34
40075;BME280;26529;51.530;11.754;2022-11-15T04:04:57;99754.00;;;18.19;52.40
40075;BME280;26529;51.530;11.754;2022-11-15T04:07:41;99749.66;;;18.17;52.41
40075;BME280;26529;51.530;11.754;2022-11-15T04:10:25;99761.97;;;18.19;52.38
40075;BME280;26529;51.530;11.754;2022-11-15T04:13:10;99761.00;;;18.20;52.31
40075;BME280;26529;51.530;11.754;2022-11-15T04:15:54;99754.00;;;18.19;52.37
40075;BME280;26529;51.530;11.754;2022-11-15T04:18:38;99759.22;;;18.20;52.20
40075;BME280;26529;51.530;11.754;2022-11-15T04:21:23;99756.47;;;18.22;52.43
40075;BME280;26529;51.530;11.754;2022-11-15T04:24:26;99749.25;;;18.24;52.35
40075;BME280;26529;51.530;11.754;2022-11-15T04:27:10;99735.88;;;18.25;52.26
40075;BME280;26529;51.530;11.754;2022-11-15T04:29:57;99742.03;;;18.26;52.30
40075;BME280;26529;51.530;11.754;2022-11-15T04:32:40;99733.09;;;18.27;52.14
40075;BME280;26529;51.530;11.754;2022-11-15T04:35:24;99741.94;;;18.27;52.24
40075;BME280;26529;51.530;11.754;2022-11-15T04:38:10;99736.63;;;18.27;52.22
40075;BME280;26529;51.530;11.754;2022-11-15T04:40:54;99740.88;;;18.30;52.24
40075;BME280;26529;51.530;11.754;2022-11-15T04:43:38;99735.66;;;18.28;52.27
40075;BME280;26529;51.530;11.754;2022-11-15T04:46:23;99741.59;;;18.32;52.07
40075;BME280;26529;51.530;11.754;2022-11-15T04:49:07;99744.25;;;18.32;52.07
40075;BME280;26529;51.530;11.754;2022-11-15T04:51:52;99736.53;;;18.29;52.21
40075;BME280;26529;51.530;11.754;2022-11-15T04:54:36;99734.69;;;18.29;52.11
40075;BME280;26529;51.530;11.754;2022-11-15T04:57:20;99730.25;;;18.30;52.32
40075;BME280;26529;51.530;11.754;2022-11-15T05:00:06;99732.19;;;18.28;52.25
40075;BME280;26529;51.530;11.754;2022-11-15T05:02:52;99725.28;;;18.25;52.08
40075;BME280;26529;51.530;11.754;2022-11-15T05:05:57;99729.53;;;18.28;52.18
40075;BME280;26529;51.530;11.754;2022-11-15T05:08:44;99725.47;;;18.22;52.25
40075;BME280;26529;51.530;11.754;2022-11-15T05:11:28;99730.03;;;18.20;52.31
40075;BME280;26529;51.530;11.754;2022-11-15T05:14:14;99726.66;;;18.18;52.29
40075;BME280;26529;51.530;11.754;2022-11-15T05:17:00;99728.66;;;18.14;52.48
40075;BME280;26529;51.530;11.754;2022-11-15T05:19:45;99725.03;;;18.15;52.22
40075;BME280;26529;51.530;11.754;2022-11-15T05:22:29;99725.03;;;18.15;52.39
40075;BME280;26529;51.530;11.754;2022-11-15T05:25:14;99709.97;;;18.16;52.25
40075;BME280;26529;51.530;11.754;2022-11-15T05:27:58;99712.50;;;18.17;52.40
40075;BME280;26529;51.530;11.754;2022-11-15T05:30:42;99705.50;;;18.16;52.11
40075;BME280;26529;51.530;11.754;2022-11-15T05:33:26;99711.00;;;18.13;52.44
40075;BME280;26529;51.530;11.754;2022-11-15T05:39:19;99711.13;;;18.12;52.39
40075;BME280;26529;51.530;11.754;2022-11-15T05:42:15;99707.63;;;18.11;52.40
40075;BME280;26529;51.530;11.754;2022-11-15T05:45:02;99712.94;;;18.11;52.37
40075;BME280;26529;51.530;11.754;2022-11-15T05:47:49;99708.69;;;18.09;52.55
40075;BME280;26529;51.530;11.754;2022-11-15T05:50:35;99714.84;;;18.09;52.52
40075;BME280;26529;51.530;11.754;2022-11-15T05:53:24;99718.25;;;18.11;52.28
40075;BME280;26529;51.530;11.754;2022-11-15T05:56:11;99725.25;;;18.12;52.41
40075;BME280;26529;51.530;11.754;2022-11-15T05:58:57;99718.88;;;18.15;52.34
40075;BME280;26529;51.530;11.754;2022-11-15T06:01:42;99722.28;;;18.17;52.17
40075;BME280;26529;51.530;11.754;2022-11-15T06:04:27;99719.31;;;18.22;52.32
40075;BME280;26529;51.530;11.754;2022-11-15T06:07:12;99711.38;;;18.22;52.23
40075;BME280;26529;51.530;11.754;2022-11-15T06:09:56;99711.38;;;18.22;52.06
40075;BME280;26529;51.530;11.754;2022-11-15T06:12:41;99721.03;;;18.23;52.21
40075;BME280;26529;51.530;11.754;2022-11-15T06:15:26;99723.66;;;18.23;52.08
40075;BME280;26529;51.530;11.754;2022-11-15T06:18:10;99732.59;;;18.22;51.98
40075;BME280;26529;51.530;11.754;2022-11-15T06:20:58;99742.25;;;18.23;52.13
40075;BME280;26529;51.530;11.754;2022-11-15T06:23:43;99745.63;;;18.25;52.17
40075;BME280;26529;51.530;11.754;2022-11-15T06:26:28;99745.22;;;18.31;52.66
40075;BME280;26529;51.530;11.754;2022-11-15T06:29:12;99742.47;;;18.33;52.49
40075;BME280;26529;51.530;11.754;2022-11-15T06:31:56;99742.47;;;18.33;52.76
40075;BME280;26529;51.530;11.754;2022-11-15T06:34:40;99731.00;;;18.32;52.98
40075;BME280;26529;51.530;11.754;2022-11-15T06:37:24;99739.72;;;18.34;53.07
40075;BME280;26529;51.530;11.754;2022-11-15T06:40:10;99734.28;;;18.36;52.99
40075;BME280;26529;51.530;11.754;2022-11-15T06:43:00;99744.69;;;18.39;52.88
40075;BME280;26529;51.530;11.754;2022-11-15T06:45:44;99741.41;;;18.35;52.70
40075;BME280;26529;51.530;11.754;2022-11-15T06:48:30;99740.44;;;18.36;52.86
40075;BME280;26529;51.530;11.754;2022-11-15T06:51:14;99750.75;;;18.41;52.72
40075;BME280;26529;51.530;11.754;2022-11-15T06:53:58;99747.34;;;18.39;52.75
40075;BME280;26529;51.530;11.754;2022-11-15T06:56:43;99755.31;;;18.39;52.65
40075;BME280;26529;51.530;11.754;2022-11-15T06:59:27;99755.41;;;18.37;52.69
40075;BME280;26529;51.530;11.754;2022-11-15T07:02:13;99756.38;;;18.36;52.92
40075;BME280;26529;51.530;11.754;2022-11-15T07:04:57;99749.47;;;18.34;52.76
40075;BME280;26529;51.530;11.754;2022-11-15T07:07:41;99746.28;;;18.28;52.86
40075;BME280;26529;51.530;11.754;2022-11-15T07:10:26;99751.59;;;18.28;52.97
40075;BME280;26529;51.530;11.754;2022-11-15T07:13:10;99752.03;;;18.35;52.84
40075;BME280;26529;51.530;11.754;2022-11-15T07:15:54;99759.75;;;18.38;52.68
40075;BME280;26529;51.530;11.754;2022-11-15T07:18:39;99765.81;;;18.40;52.53
40075;BME280;26529;51.530;11.754;2022-11-15T07:21:23;99765.81;;;18.40;52.66
40075;BME280;26529;51.530;11.754;2022-11-15T07:24:08;99757.97;;;18.39;52.90
40075;BME280;26529;51.530;11.754;2022-11-15T07:26:52;99755.66;;;18.34;52.82
40075;BME280;26529;51.530;11.754;2022-11-15T07:29:36;99762.09;;;18.30;52.71
40075;BME280;26529;51.530;11.754;2022-11-15T07:32:21;99754.22;;;18.28;52.97
40075;BME280;26529;51.530;11.754;2022-11-15T07:35:05;99758.72;;;18.28;53.06
40075;BME280;26529;51.530;11.754;2022-11-15T07:37:53;99752.44;;;18.29;52.84
40075;BME280;26529;51.530;11.754;2022-11-15T07:40:38;99750.75;;;18.28;53.01
40075;BME280;26529;51.530;11.754;2022-11-15T07:43:22;99755.19;;;18.27;52.80
40075;BME280;26529;51.530;11.754;2022-11-15T07:46:08;99749.88;;;18.27;52.79
40075;BME280;26529;51.530;11.754;2022-11-15T07:48:55;99755.41;;;18.24;52.78
40075;BME280;26529;51.530;11.754;2022-11-15T07:51:39;99761.78;;;18.22;52.57
40075;BME280;26529;51.530;11.754;2022-11-15T07:54:23;99758.25;;;18.21;52.73
40075;BME280;26529;51.530;11.754;2022-11-15T07:57:07;99747.56;;;18.23;52.72
40075;BME280;26529;51.530;11.754;2022-11-15T07:59:53;99747.56;;;18.23;52.71
40075;BME280;26529;51.530;11.754;2022-11-15T08:02:37;99743.84;;;18.25;52.48
40075;BME280;26529;51.530;11.754;2022-11-15T08:05:22;99744.59;;;18.27;52.47
40075;BME280;26529;51.530;11.754;2022-11-15T08:08:08;99747.13;;;18.29;52.65
40075;BME280;26529;51.530;11.754;2022-11-15T08:10:52;99755.09;;;18.29;52.43
40075;BME280;26529;51.530;11.754;2022-11-15T08:13:36;99747.13;;;18.29;52.42
40075;BME280;26529;51.530;11.754;2022-11-15T08:16:20;99738.22;;;18.30;52.36
40075;BME280;26529;51.530;11.754;2022-11-15T08:19:04;99733.78;;;18.30;52.45
40075;BME280;26529;51.530;11.754;2022-11-15T08:21:48;99732.81;;;18.32;52.43
40075;BME280;26529;51.530;11.754;2022-11-15T08:24:32;99724.00;;;18.31;52.46
40075;BME280;26529;51.530;11.754;2022-11-15T08:27:16;99724.72;;;18.33;52.30
40075;BME280;26529;51.530;11.754;2022-11-15T08:30:01;99734.59;;;18.31;52.28
40075;BME280;26529;51.530;11.754;2022-11-15T08:32:45;99722.06;;;18.33;52.29
40075;BME280;26529;51.530;11.754;2022-11-15T08:35:30;99732.16;;;18.41;52.64
40075;BME280;26529;51.530;11.754;2022-11-15T08:38:14;99730.78;;;18.48;52.68
40075;BME280;26529;51.530;11.754;2022-11-15T08:41:04;99728.03;;;18.50;52.53
40075;BME280;26529;51.530;11.754;2022-11-15T08:43:48;99726.34;;;18.49;52.40
40075;BME280;26529;51.530;11.754;2022-11-15T08:46:32;99728.22;;;18.47;52.73
40075;BME280;26529;51.530;11.754;2022-11-15T08:49:16;99722.91;;;18.47;52.50
40075;BME280;26529;51.530;11.754;2022-11-15T08:52:04;99717.75;;;18.45;52.49
40075;BME280;26529;51.530;11.754;2022-11-15T08:54:48;99726.53;;;18.46;52.45
40075;BME280;26529;51.530;11.754;2022-11-15T08:57:32;99722.09;;;18.46;52.26
40075;BME280;26529;51.530;11.754;2022-11-15T09:00:17;99720.16;;;18.48;52.24
40075;BME280;26529;51.530;11.754;2022-11-15T09:03:04;99720.16;;;18.48;52.27
40075;BME280;26529;51.530;11.754;2022-11-15T09:05:48;99717.41;;;18.50;52.14
40075;BME280;26529;51.530;11.754;2022-11-15T09:08:37;99722.72;;;18.50;52.26
40075;BME280;26529;51.530;11.754;2022-11-15T09:11:22;99725.28;;;18.51;52.22
40075;BME280;26529;51.530;11.754;2022-11-15T09:14:07;99716.53;;;18.49;52.12
40075;BME280;26529;51.530;11.754;2022-11-15T09:16:51;99719.34;;;18.48;52.06
40075;BME280;26529;51.530;11.754;2022-11-15T09:19:35;99708.72;;;18.48;52.37
40075;BME280;26529;51.530;11.754;2022-11-15T09:22:21;99708.72;;;18.48;52.34
40075;BME280;26529;51.530;11.754;2022-11-15T09:25:05;99701.69;;;18.47;52.25
40075;BME280;26529;51.530;11.754;2022-11-15T09:27:50;99700.75;;;18.48;52.30
40075;BME280;26529;51.530;11.754;2022-11-15T09:30:33;99696.38;;;18.47;52.34
40075;BME280;26529;51.530;11.754;2022-11-15T09:33:18;99698.09;;;18.48;52.28
40075;BME280;26529;51.530;11.754;2022-11-15T09:36:04;99693.63;;;18.48;52.25
40075;BME280;26529;51.530;11.754;2022-11-15T09:38:49;99704.22;;;18.48;52.37
40075;BME280;26529;51.530;11.754;2022-11-15T09:41:51;99705.09;;;18.49;52.10
40075;BME280;26529;51.530;11.754;2022-11-15T09:44:48;99706.78;;;18.50;52.29
40075;BME280;26529;51.530;11.754;2022-11-15T09:50:34;99700.53;;;18.51;52.21
40075;BME280;26529;51.530;11.754;2022-11-15T09:53:01;99701.25;;;18.53;52.11
40075;BME280;26529;51.530;11.754;2022-11-15T09:55:51;99694.25;;;18.52;52.12
40075;BME280;26529;51.530;11.754;2022-11-15T10:01:19;99687.00;;;18.54;52.16
40075;BME280;26529;51.530;11.754;2022-11-15T10:03:48;99687.97;;;18.53;52.16
40075;BME280;26529;51.530;11.754;2022-11-15T10:06:24;99675.56;;;18.53;52.09
40075;BME280;26529;51.530;11.754;2022-11-15T10:11:34;99671.31;;;18.51;52.12
40075;BME280;26529;51.530;11.754;2022-11-15T10:14:04;99674.84;;;18.51;52.11
40075;BME280;26529;51.530;11.754;2022-11-15T10:19:16;99664.94;;;18.53;52.20
40075;BME280;26529;51.530;11.754;2022-11-15T10:24:28;99660.59;;;18.52;52.09
40075;BME280;26529;51.530;11.754;2022-11-15T10:27:00;99659.53;;;18.55;51.92
40075;BME280;26529;51.530;11.754;2022-11-15T10:29:26;99656.88;;;18.55;51.96
40075;BME280;26529;51.530;11.754;2022-11-15T10:31:51;99648.16;;;18.53;51.97
40075;BME280;26529;51.530;11.754;2022-11-15T10:34:19;99642.84;;;18.53;52.16
40075;BME280;26529;51.530;11.754;2022-11-15T10:36:46;99640.19;;;18.53;52.08
40075;BME280;26529;51.530;11.754;2022-11-15T10:39:18;99644.44;;;18.55;52.14
40075;BME280;26529;51.530;11.754;2022-11-15T10:41:44;99635.41;;;18.58;51.92
40075;BME280;26529;51.530;11.754;2022-11-15T10:46:39;99622.13;;;18.58;51.87
40075;BME280;26529;51.530;11.754;2022-11-15T10:49:29;99629.28;;;18.57;51.85
40075;BME280;26529;51.530;11.754;2022-11-15T10:52:15;99616.00;;;18.57;51.84
40075;BME280;26529;51.530;11.754;2022-11-15T10:57:28;99615.03;;;18.58;51.97
40075;BME280;26529;51.530;11.754;2022-11-15T10:59:57;99610.56;;;18.59;51.85
40075;BME280;26529;51.530;11.754;2022-11-15T11:02:37;99604.41;;;18.58;51.96
40075;BME280;26529;51.530;11.754;2022-11-15T11:05:06;99595.69;;;18.56;51.95
40075;BME280;26529;51.530;11.754;2022-11-15T11:07:34;99598.47;;;18.55;51.83
40075;BME280;26529;51.530;11.754;2022-11-15T11:10:18;99586.75;;;18.70;51.76
40075;BME280;26529;51.530;11.754;2022-11-15T11:12:44;99589.84;;;18.64;51.86
40075;BME280;26529;51.530;11.754;2022-11-15T11:15:12;99586.56;;;18.61;51.91
40075;BME280;26529;51.530;11.754;2022-11-15T11:18:22;99585.69;;;18.60;51.90
40075;BME280;26529;51.530;11.754;2022-11-15T11:20:53;99591.88;;;18.61;51.95
40075;BME280;26529;51.530;11.754;2022-11-15T11:34:20;99584.75;;;18.61;51.97
40075;BME280;26529;51.530;11.754;2022-11-15T11:38:03;99574.88;;;18.63;51.91
40075;BME280;26529;51.530;11.754;2022-11-15T11:40:26;99570.38;;;18.64;51.96
40075;BME280;26529;51.530;11.754;2022-11-15T11:43:12;99571.25;;;18.64;52.00
40075;BME280;26529;51.530;11.754;2022-11-15T11:46:03;99565.94;;;18.64;51.84
40075;BME280;26529;51.530;11.754;2022-11-15T11:48:40;99563.19;;;18.66;51.93
40075;BME280;26529;51.530;11.754;2022-11-15T11:51:24;99561.50;;;18.65;51.89
40075;BME280;26529;51.530;11.754;2022-11-15T11:53:57;99562.56;;;18.62;51.97
40075;BME280;26529;51.530;11.754;2022-11-15T11:56:27;99565.22;;;18.62;52.05
40075;BME280;26529;51.530;11.754;2022-11-15T11:58:57;99561.69;;;18.62;51.97
40075;BME280;26529;51.530;11.754;2022-11-15T12:01:39;99555.56;;;18.61;52.10
40075;BME280;26529;51.530;11.754;2022-11-15T12:07:00;99548.41;;;18.62;52.07
40075;BME280;26529;51.530;11.754;2022-11-15T12:09:38;99536.00;;;18.62;52.02
40075;BME280;26529;51.530;11.754;2022-11-15T12:12:16;99541.31;;;18.62;52.01
40075;BME280;26529;51.530;11.754;2022-11-15T12:17:18;99532.38;;;18.63;52.01
40075;BME280;26529;51.530;11.754;2022-11-15T12:19:45;99539.50;;;18.63;51.94
40075;BME280;26529;51.530;11.754;2022-11-15T12:22:21;99535.75;;;18.65;51.88
40075;BME280;26529;51.530;11.754;2022-11-15T12:25:05;99522.28;;;18.68;51.88
40075;BME280;26529;51.530;11.754;2022-11-15T12:27:37;99516.44;;;18.63;52.16
40075;BME280;26529;51.530;11.754;2022-11-15T12:30:14;99519.00;;;18.65;52.15
40075;BME280;26529;51.530;11.754;2022-11-15T12:32:51;99509.00;;;18.68;51.91
40075;BME280;26529;51.530;11.754;2022-11-15T12:35:28;99512.38;;;18.70;51.79
40075;BME280;26529;51.530;11.754;2022-11-15T12:37:56;99506.34;;;18.68;51.92
40075;BME280;26529;51.530;11.754;2022-11-15T12:40:36;99505.38;;;18.69;51.91
40075;BME280;26529;51.530;11.754;2022-11-15T12:43:43;99500.06;;;18.69;51.97
40075;BME280;26529;51.530;11.754;2022-11-15T12:51:09;99499.09;;;18.70;51.99
40075;BME280;26529;51.530;11.754;2022-11-15T12:53:34;99498.13;;;18.71;51.84
40075;BME280;26529;51.530;11.754;2022-11-15T13:06:52;99482.44;;;18.68;52.14
40075;BME280;26529;51.530;11.754;2022-11-15T13:15:00;99480.75;;;18.67;52.21
40075;BME280;26529;51.530;11.754;2022-11-15T13:17:27;99471.81;;;18.68;52.21
40075;BME280;26529;51.530;11.754;2022-11-15T13:22:52;99469.28;;;18.67;52.38
40075;BME280;26529;51.530;11.754;2022-11-15T13:31:29;99461.31;;;18.67;52.11
40075;BME280;26529;51.530;11.754;2022-11-15T13:33:59;99456.09;;;18.65;52.30
40075;BME280;26529;51.530;11.754;2022-11-15T13:36:31;99453.44;;;18.65;52.33
40075;BME280;26529;51.530;11.754;2022-11-15T13:39:26;99448.13;;;18.65;52.38
40075;BME280;26529;51.530;11.754;2022-11-15T13:41:52;99447.19;;;18.66;52.33
40075;BME280;26529;51.530;11.754;2022-11-15T13:44:23;99448.03;;;18.67;52.21
40075;BME280;26529;51.530;11.754;2022-11-15T13:47:00;99442.81;;;18.65;52.39
40075;BME280;26529;51.530;11.754;2022-11-15T13:49:31;99444.66;;;18.65;52.41
40075;BME280;26529;51.530;11.754;2022-11-15T13:51:59;99442.94;;;18.64;52.41
40075;BME280;26529;51.530;11.754;2022-11-15T13:54:30;99442.94;;;18.64;52.24
40075;BME280;26529;51.530;11.754;2022-11-15T13:57:25;99437.63;;;18.64;52.38
40075;BME280;26529;51.530;11.754;2022-11-15T14:00:03;99436.78;;;18.63;52.44
40075;BME280;26529;51.530;11.754;2022-11-15T14:02:37;99438.50;;;18.64;52.22
40075;BME280;26529;51.530;11.754;2022-11-15T14:05:15;99429.66;;;18.64;52.27
40075;BME280;26529;51.530;11.754;2022-11-15T14:07:56;99425.31;;;18.63;52.49
40075;BME280;26529;51.530;11.754;2022-11-15T14:10:28;99420.88;;;18.63;52.23
40075;BME280;26529;51.530;11.754;2022-11-15T14:12:54;99407.69;;;18.62;52.32
40075;BME280;26529;51.530;11.754;2022-11-15T14:15:35;99408.66;;;18.61;52.24
40075;BME280;26529;51.530;11.754;2022-11-15T14:18:02;99409.53;;;18.61;52.17
40075;BME280;26529;51.530;11.754;2022-11-15T14:20:33;99403.34;;;18.61;52.06
40075;BME280;26529;51.530;11.754;2022-11-15T14:23:02;99404.94;;;18.63;52.16
40075;BME280;26529;51.530;11.754;2022-11-15T14:25:32;99403.25;;;18.62;52.10
40075;BME280;26529;51.530;11.754;2022-11-15T14:30:43;99400.34;;;18.65;51.99
40075;BME280;26529;51.530;11.754;2022-11-15T14:35:43;99400.34;;;18.65;51.86
40075;BME280;26529;51.530;11.754;2022-11-15T14:38:09;99404.94;;;18.63;51.98
40075;BME280;26529;51.530;11.754;2022-11-15T14:40:34;99390.94;;;18.61;52.09
40075;BME280;26529;51.530;11.754;2022-11-15T14:43:00;99378.59;;;18.60;52.07
40075;BME280;26529;51.530;11.754;2022-11-15T14:45:26;99383.91;;;18.60;52.12
40075;BME280;26529;51.530;11.754;2022-11-15T14:47:52;99378.59;;;18.60;52.22
40075;BME280;26529;51.530;11.754;2022-11-15T14:50:21;99379.47;;;18.61;52.15
40075;BME280;26529;51.530;11.754;2022-11-15T14:52:47;99378.59;;;18.60;52.10
40075;BME280;26529;51.530;11.754;2022-11-15T14:55:23;99375.94;;;18.60;52.15
40075;BME280;26529;51.530;11.754;2022-11-15T14:57:49;99382.22;;;18.59;52.00
40075;BME280;26529;51.530;11.754;2022-11-15T15:00:15;99380.53;;;18.58;52.18
40075;BME280;26529;51.530;11.754;2022-11-15T15:02:42;99376.91;;;18.59;52.23
40075;BME280;26529;51.530;11.754;2022-11-15T15:05:20;99374.25;;;18.59;52.11
40075;BME280;26529;51.530;11.754;2022-11-15T15:07:46;99369.91;;;18.58;52.38
40075;BME280;26529;51.530;11.754;2022-11-15T15:10:13;99368.94;;;18.59;52.25
40075;BME280;26529;51.530;11.754;2022-11-15T15:12:39;99370.63;;;18.60;52.22
40075;BME280;26529;51.530;11.754;2022-11-15T15:15:05;99364.59;;;18.58;52.21
40075;BME280;26529;51.530;11.754;2022-11-15T15:17:30;99371.50;;;18.61;52.07
40075;BME280;26529;51.530;11.754;2022-11-15T15:19:56;99358.22;;;18.61;52.17
40075;BME280;26529;51.530;11.754;2022-11-15T15:22:30;99361.72;;;18.61;52.06
40075;BME280;26529;51.530;11.754;2022-11-15T15:24:56;99370.31;;;18.65;51.99
40075;BME280;26529;51.530;11.754;2022-11-15T15:27:21;99367.66;;;18.65;51.94
40075;BME280;26529;51.530;11.754;2022-11-15T15:29:47;99367.75;;;18.63;51.90
40075;BME280;26529;51.530;11.754;2022-11-15T15:32:12;99359.09;;;18.61;52.02
40075;BME280;26529;51.530;11.754;2022-11-15T15:34:38;99359.09;;;18.61;52.13
40075;BME280;26529;51.530;11.754;2022-11-15T15:37:24;99361.72;;;18.61;52.08
40075;BME280;26529;51.530;11.754;2022-11-15T15:39:59;99355.69;;;18.59;52.16
40075;BME280;26529;51.530;11.754;2022-11-15T15:42:25;99357.50;;;18.58;51.98
40075;BME280;26529;51.530;11.754;2022-11-15T15:44:50;99353.16;;;18.57;52.13
40075;BME280;26529;51.530;11.754;2022-11-15T15:47:21;99358.47;;;18.57;52.24